createdAt,value
2023-01-19T00:02:32.150Z,12.20
2023-01-19T00:05:15.219Z,12.40
2023-01-19T00:08:14.485Z,10.77
2023-01-19T00:10:57.138Z,12.27
2023-01-19T00:13:39.955Z,10.30
2023-01-19T00:16:23.950Z,10.23
2023-01-19T00:19:06.545Z,11.85
2023-01-19T00:21:49.129Z,12.02
2023-01-19T00:24:31.713Z,15.82
2023-01-19T00:27:14.272Z,10.80
2023-01-19T00:29:56.904Z,10.85
2023-01-19T00:32:40.810Z,10.00
2023-01-19T00:35:23.543Z,11.20
2023-01-19T00:38:06.108Z,11.35
2023-01-19T00:40:48.721Z,9.73
2023-01-19T00:43:31.305Z,11.93
2023-01-19T00:46:13.957Z,9.25
2023-01-19T00:48:57.909Z,10.00
2023-01-19T00:51:40.478Z,10.45
2023-01-19T00:54:23.033Z,11.60
2023-01-19T00:57:05.601Z,7.85
2023-01-19T00:59:48.167Z,10.75
2023-01-19T01:02:30.895Z,8.88
2023-01-19T01:05:14.941Z,9.63
2023-01-19T01:07:57.553Z,12.07
2023-01-19T01:10:40.113Z,8.70
2023-01-19T01:13:26.218Z,13.98
2023-01-19T01:16:10.301Z,12.30
2023-01-19T01:18:52.941Z,10.85
2023-01-19T01:21:37.273Z,8.52
2023-01-19T01:24:20.763Z,11.07
2023-01-19T01:27:03.387Z,9.93
2023-01-19T01:29:46.517Z,10.32
2023-01-19T01:32:29.064Z,8.68
2023-01-19T01:35:12.201Z,13.25
2023-01-19T01:37:58.765Z,9.75
2023-01-19T01:40:41.361Z,9.10
2023-01-19T01:43:23.907Z,11.35
2023-01-19T01:46:06.518Z,10.18
2023-01-19T01:48:51.219Z,11.68
2023-01-19T01:51:35.506Z,10.13
2023-01-19T01:54:20.508Z,12.38
2023-01-19T01:57:04.460Z,8.40
2023-01-19T01:59:49.354Z,11.52
2023-01-19T02:02:51.035Z,11.23
2023-01-19T02:05:35.511Z,10.95
2023-01-19T02:08:37.936Z,13.00
2023-01-19T02:11:39.337Z,10.02
2023-01-19T02:14:21.954Z,9.65
2023-01-19T02:17:04.815Z,9.30
2023-01-19T02:19:47.451Z,8.38
2023-01-19T02:22:35.771Z,11.15
2023-01-19T02:25:20.891Z,8.88
2023-01-19T02:28:03.509Z,10.23
2023-01-19T02:30:46.155Z,10.13
2023-01-19T02:33:29.508Z,10.45
2023-01-19T02:36:14.456Z,10.40
2023-01-19T02:38:57.914Z,8.85
2023-01-19T02:41:43.497Z,10.77
2023-01-19T02:44:27.476Z,10.75
2023-01-19T02:47:10.241Z,7.72
2023-01-19T02:49:56.472Z,11.70
2023-01-19T02:52:39.073Z,12.43
2023-01-19T02:55:23.377Z,9.07
2023-01-19T02:58:08.998Z,7.85
2023-01-19T03:00:55.686Z,7.53
2023-01-19T03:03:43.715Z,11.93
2023-01-19T03:06:33.287Z,7.72
2023-01-19T03:09:18.182Z,9.75
2023-01-19T03:12:03.532Z,8.10
2023-01-19T03:14:48.995Z,8.98
2023-01-19T03:17:32.555Z,8.70
2023-01-19T03:20:17.005Z,12.70
2023-01-19T03:23:01.887Z,11.18
2023-01-19T03:25:46.939Z,7.30
2023-01-19T03:28:30.934Z,7.72
2023-01-19T03:31:17.071Z,8.63
2023-01-19T03:34:01.704Z,9.27
2023-01-19T03:36:45.155Z,8.13
2023-01-19T03:39:28.383Z,7.45
2023-01-19T03:42:12.717Z,10.93
2023-01-19T03:44:56.474Z,7.38
2023-01-19T03:47:40.712Z,9.10
2023-01-19T03:50:25.576Z,11.05
2023-01-19T03:53:09.925Z,9.48
2023-01-19T03:55:54.182Z,8.20
2023-01-19T03:58:37.412Z,9.50
2023-01-19T04:01:22.803Z,7.25
2023-01-19T04:04:07.023Z,9.00
2023-01-19T04:06:49.651Z,8.13
2023-01-19T04:09:32.249Z,9.50
2023-01-19T04:12:14.862Z,8.27
2023-01-19T04:14:57.461Z,7.70
2023-01-19T04:17:40.237Z,7.30
2023-01-19T04:20:24.348Z,7.55
2023-01-19T04:23:07.057Z,9.00
2023-01-19T04:25:49.682Z,8.93
2023-01-19T04:28:32.879Z,9.52
2023-01-19T04:31:15.566Z,13.20
2023-01-19T04:33:58.258Z,7.60
2023-01-19T04:36:42.208Z,9.48
2023-01-19T04:39:24.769Z,8.48
2023-01-19T04:42:07.624Z,10.50
2023-01-19T04:44:50.202Z,9.00
2023-01-19T04:47:32.795Z,12.55
2023-01-19T04:50:15.397Z,9.18
2023-01-19T04:52:59.744Z,11.60
2023-01-19T04:55:42.477Z,12.43
2023-01-19T04:58:25.087Z,8.60
2023-01-19T05:01:11.043Z,8.75
2023-01-19T05:03:53.633Z,9.30
2023-01-19T05:06:36.372Z,9.10
2023-01-19T05:09:20.354Z,10.48
2023-01-19T05:12:02.921Z,8.70
2023-01-19T05:14:45.569Z,9.13
2023-01-19T05:17:28.231Z,11.65
2023-01-19T05:20:12.242Z,8.52
2023-01-19T05:22:55.956Z,9.80
2023-01-19T05:25:39.903Z,12.20
2023-01-19T05:28:22.504Z,9.55
2023-01-19T05:31:05.328Z,10.10
2023-01-19T05:33:48.215Z,9.70
2023-01-19T05:36:31.955Z,10.73
2023-01-19T05:39:14.709Z,8.23
2023-01-19T05:41:58.677Z,8.90
2023-01-19T05:44:41.245Z,9.32
2023-01-19T05:47:23.867Z,9.07
2023-01-19T05:50:06.995Z,10.20
2023-01-19T05:52:49.604Z,10.25
2023-01-19T05:55:32.568Z,9.77
2023-01-19T05:58:16.926Z,11.80
2023-01-19T06:01:02.867Z,10.52
2023-01-19T06:03:45.529Z,10.30
2023-01-19T06:06:28.082Z,9.52
2023-01-19T06:09:10.801Z,10.18
2023-01-19T06:11:56.490Z,9.27
2023-01-19T06:14:40.880Z,8.85
2023-01-19T06:17:23.567Z,9.15
2023-01-19T06:20:06.980Z,10.60
2023-01-19T06:22:49.559Z,8.90
2023-01-19T06:25:32.206Z,10.98
2023-01-19T06:28:14.880Z,10.18
2023-01-19T06:30:59.019Z,10.10
2023-01-19T06:33:41.627Z,11.10
2023-01-19T06:36:24.247Z,9.85
2023-01-19T06:39:06.896Z,9.38
2023-01-19T06:41:49.605Z,9.00
2023-01-19T06:44:32.283Z,9.98
2023-01-19T06:47:16.723Z,9.57
2023-01-19T06:49:59.383Z,9.20
2023-01-19T06:52:42.685Z,8.35
2023-01-19T06:55:25.405Z,8.48
2023-01-19T06:58:10.712Z,10.27
2023-01-19T07:00:53.591Z,6.75
2023-01-19T07:03:38.476Z,8.05
2023-01-19T07:06:21.116Z,7.38
2023-01-19T07:09:07.875Z,8.95
2023-01-19T07:11:50.508Z,8.00
2023-01-19T07:14:33.991Z,6.72
2023-01-19T07:17:16.615Z,10.15
2023-01-19T07:20:00.606Z,6.88
2023-01-19T07:22:45.656Z,7.00
2023-01-19T07:25:28.304Z,8.48
2023-01-19T07:28:12.908Z,9.73
2023-01-19T07:30:56.137Z,9.32
2023-01-19T07:33:38.809Z,7.20
2023-01-19T07:36:22.824Z,8.90
2023-01-19T07:39:05.486Z,9.65
2023-01-19T07:41:49.198Z,8.02
2023-01-19T07:44:31.849Z,8.75
2023-01-19T07:47:14.535Z,7.88
2023-01-19T07:49:57.200Z,11.18
2023-01-19T07:52:41.281Z,12.32
2023-01-19T07:55:24.571Z,10.52
2023-01-19T07:58:07.583Z,9.98
2023-01-19T08:00:50.703Z,9.15
2023-01-19T08:03:33.553Z,9.98
2023-01-19T08:06:20.381Z,9.65
2023-01-19T08:09:05.666Z,10.48
2023-01-19T08:11:48.346Z,11.00
2023-01-19T08:14:31.005Z,11.45
2023-01-19T08:17:14.101Z,9.38
2023-01-19T08:19:57.309Z,12.20
2023-01-19T08:22:39.968Z,10.30
2023-01-19T08:25:24.535Z,11.43
2023-01-19T08:28:07.861Z,10.75
2023-01-19T08:30:54.233Z,10.48
2023-01-19T08:33:37.086Z,10.18
2023-01-19T08:36:19.750Z,11.52
2023-01-19T08:39:02.412Z,10.65
2023-01-19T08:41:46.396Z,10.10
2023-01-19T08:44:29.154Z,9.07
2023-01-19T08:47:11.812Z,9.32
2023-01-19T08:49:54.419Z,10.38
2023-01-19T08:52:37.037Z,9.93
2023-01-19T08:55:19.646Z,10.05
2023-01-19T08:58:04.941Z,12.25
2023-01-19T09:00:48.939Z,9.25
2023-01-19T09:03:31.888Z,10.32
2023-01-19T09:06:17.065Z,8.00
2023-01-19T09:08:59.766Z,10.60
2023-01-19T09:11:42.475Z,8.00
2023-01-19T09:14:26.521Z,9.05
2023-01-19T09:17:09.153Z,8.75
2023-01-19T09:19:51.771Z,8.90
2023-01-19T09:22:34.550Z,10.63
2023-01-19T09:25:17.332Z,8.25
2023-01-19T09:28:00.647Z,9.70
2023-01-19T09:30:45.324Z,11.13
2023-01-19T09:33:28.929Z,9.02
2023-01-19T09:36:11.806Z,10.07
2023-01-19T09:38:54.496Z,10.40
2023-01-19T09:41:38.573Z,9.40
2023-01-19T09:44:27.732Z,8.35
2023-01-19T09:47:16.288Z,10.45
2023-01-19T09:50:02.576Z,8.60
2023-01-19T09:52:47.147Z,11.05
2023-01-19T09:55:30.160Z,9.20
2023-01-19T09:58:16.255Z,8.95
2023-01-19T10:01:05.953Z,11.05
2023-01-19T10:03:51.226Z,8.93
2023-01-19T10:06:33.909Z,11.02
2023-01-19T10:09:23.665Z,9.82
2023-01-19T10:12:10.121Z,10.45
2023-01-19T10:14:56.290Z,9.50
2023-01-19T10:17:43.523Z,8.60
2023-01-19T10:20:29.883Z,10.60
2023-01-19T10:23:20.815Z,9.68
2023-01-19T10:26:07.741Z,9.82
2023-01-19T10:28:52.315Z,9.82
2023-01-19T10:31:36.862Z,8.20
2023-01-19T10:34:23.392Z,8.27
2023-01-19T10:37:17.204Z,10.57
2023-01-19T10:40:02.482Z,9.60
2023-01-19T10:42:45.166Z,9.05
2023-01-19T10:45:30.088Z,11.43
2023-01-19T10:48:13.344Z,9.75
2023-01-19T10:51:02.972Z,10.40
2023-01-19T10:53:54.546Z,8.18
2023-01-19T10:56:38.423Z,9.70
2023-01-19T10:59:31.968Z,8.40
2023-01-19T11:02:17.647Z,11.05
2023-01-19T11:05:01.324Z,8.55
2023-01-19T11:07:43.951Z,8.60
2023-01-19T11:10:28.357Z,10.20
2023-01-19T11:13:12.924Z,7.60
2023-01-19T11:15:57.451Z,8.82
2023-01-19T11:18:41.000Z,7.95
2023-01-19T11:21:25.963Z,7.72
2023-01-19T11:24:13.248Z,8.77
2023-01-19T11:27:02.957Z,8.93
2023-01-19T11:29:48.263Z,8.30
2023-01-19T11:32:33.127Z,8.10
2023-01-19T11:35:34.287Z,6.75
2023-01-19T11:38:18.217Z,9.23
2023-01-19T11:41:04.186Z,9.93
2023-01-19T11:43:50.092Z,9.25
2023-01-19T11:46:34.277Z,8.63
2023-01-19T11:49:21.359Z,7.65
2023-01-19T11:52:06.283Z,8.32
2023-01-19T11:54:53.460Z,9.30
2023-01-19T11:57:36.198Z,9.02
2023-01-19T12:00:24.404Z,7.88
2023-01-19T12:03:10.854Z,11.15
2023-01-19T12:05:54.185Z,7.88
2023-01-19T12:08:38.117Z,8.10
2023-01-19T12:11:23.673Z,8.77
2023-01-19T12:14:08.212Z,9.15
2023-01-19T12:16:54.147Z,8.93
2023-01-19T12:19:41.860Z,8.38
2023-01-19T12:22:28.451Z,9.20
2023-01-19T12:25:16.271Z,7.65
2023-01-19T12:27:59.312Z,10.20
2023-01-19T12:30:42.179Z,10.32
2023-01-19T12:33:34.598Z,8.73
2023-01-19T12:36:33.172Z,7.18
2023-01-19T12:39:17.942Z,7.32
2023-01-19T12:42:08.792Z,7.38
2023-01-19T12:44:52.913Z,7.95
2023-01-19T12:47:35.711Z,7.38
2023-01-19T12:50:21.162Z,7.97
2023-01-19T12:53:04.664Z,8.73
2023-01-19T12:55:59.781Z,7.93
2023-01-19T12:58:49.045Z,8.40
2023-01-19T13:01:31.871Z,10.15
2023-01-19T13:04:31.974Z,8.70
2023-01-19T13:07:18.104Z,8.32
2023-01-19T13:10:00.740Z,7.38
2023-01-19T13:13:09.715Z,9.02
2023-01-19T13:15:54.818Z,7.57
2023-01-19T13:18:41.383Z,10.27
2023-01-19T13:21:27.975Z,7.50
2023-01-19T13:24:12.857Z,8.00
2023-01-19T13:26:57.507Z,6.45
2023-01-19T13:29:42.388Z,6.90
2023-01-19T13:32:25.668Z,7.43
2023-01-19T13:35:13.989Z,6.13
2023-01-19T13:37:58.520Z,6.78
2023-01-19T13:40:44.305Z,6.43
2023-01-19T13:43:29.581Z,7.88
2023-01-19T13:46:12.579Z,9.25
2023-01-19T13:48:56.538Z,7.55
2023-01-19T13:51:39.158Z,8.90
2023-01-19T13:54:21.834Z,7.47
2023-01-19T13:57:05.937Z,8.10
2023-01-19T14:00:01.644Z,6.97
2023-01-19T14:02:53.915Z,8.43
2023-01-19T14:05:37.684Z,7.43
2023-01-19T14:08:21.035Z,8.05
2023-01-19T14:11:04.269Z,6.82
2023-01-19T14:13:48.286Z,7.63
2023-01-19T14:16:31.001Z,7.85
2023-01-19T14:19:13.695Z,5.95
2023-01-19T14:22:00.248Z,7.40
2023-01-19T14:24:42.859Z,6.22
2023-01-19T14:27:25.577Z,7.25
2023-01-19T14:30:16.249Z,8.85
2023-01-19T14:32:58.893Z,7.50
2023-01-19T14:35:41.580Z,8.38
2023-01-19T14:38:24.409Z,6.97
2023-01-19T14:41:07.282Z,6.68
2023-01-19T14:43:49.929Z,7.82
2023-01-19T14:46:34.073Z,7.53
2023-01-19T14:49:19.982Z,6.15
2023-01-19T14:52:03.788Z,6.68
2023-01-19T14:54:46.667Z,7.05
2023-01-19T14:57:29.314Z,5.00
2023-01-19T15:00:17.469Z,6.28
2023-01-19T15:03:01.654Z,7.70
2023-01-19T15:05:45.673Z,5.80
2023-01-19T15:08:28.998Z,4.95
2023-01-19T15:11:13.885Z,5.80
2023-01-19T15:13:56.699Z,4.75
2023-01-19T15:16:39.419Z,3.72
2023-01-19T15:19:23.534Z,5.88
2023-01-19T15:22:10.644Z,7.43
2023-01-19T15:24:57.498Z,5.65
2023-01-19T15:27:40.281Z,7.72
2023-01-19T15:30:24.369Z,8.45
2023-01-19T15:33:07.032Z,7.32
2023-01-19T15:35:51.317Z,8.10
2023-01-19T15:38:33.984Z,6.72
2023-01-19T15:41:21.839Z,6.03
2023-01-19T15:44:06.182Z,5.80
2023-01-19T15:46:48.883Z,7.32
2023-01-19T15:49:31.916Z,5.95
2023-01-19T15:52:17.146Z,7.57
2023-01-19T15:54:59.899Z,7.25
2023-01-19T15:57:42.627Z,5.43
2023-01-19T16:00:25.423Z,6.70
2023-01-19T16:03:08.466Z,6.60
2023-01-19T16:05:51.366Z,5.78
2023-01-19T16:08:35.528Z,7.18
2023-01-19T16:11:18.606Z,5.90
2023-01-19T16:14:01.471Z,6.35
2023-01-19T16:16:46.112Z,7.45
2023-01-19T16:19:29.047Z,8.60
2023-01-19T16:22:11.992Z,7.85
2023-01-19T16:24:56.437Z,5.53
2023-01-19T16:27:39.137Z,5.85
2023-01-19T16:30:21.878Z,8.43
2023-01-19T16:33:05.256Z,7.32
2023-01-19T16:35:48.118Z,7.47
2023-01-19T16:38:30.813Z,5.15
2023-01-19T16:41:14.945Z,9.50
2023-01-19T16:43:58.513Z,7.72
2023-01-19T16:46:42.307Z,4.18
2023-01-19T16:49:28.301Z,6.55
2023-01-19T16:52:11.223Z,5.45
2023-01-19T16:54:54.733Z,6.72
2023-01-19T16:57:39.050Z,4.97
2023-01-19T17:00:22.025Z,7.45
2023-01-19T17:03:04.744Z,6.72
2023-01-19T17:05:50.858Z,5.72
2023-01-19T17:08:33.586Z,6.18
2023-01-19T17:11:20.362Z,4.95
2023-01-19T17:14:05.624Z,7.07
2023-01-19T17:16:48.738Z,5.28
2023-01-19T17:19:31.769Z,3.63
2023-01-19T17:22:15.026Z,7.15
2023-01-19T17:24:57.851Z,4.68
2023-01-19T17:27:40.517Z,5.50
2023-01-19T17:30:24.603Z,8.10
2023-01-19T17:33:07.313Z,4.78
2023-01-19T17:35:50.008Z,3.53
2023-01-19T17:38:32.837Z,4.13
2023-01-19T17:41:15.952Z,3.70
2023-01-19T17:44:00.099Z,6.45
2023-01-19T17:46:44.245Z,6.97
2023-01-19T17:49:26.950Z,5.18
2023-01-19T17:52:09.585Z,5.93
2023-01-19T17:54:52.261Z,5.25
2023-01-19T17:57:35.906Z,7.47
2023-01-19T18:00:19.350Z,5.50
2023-01-19T18:03:03.424Z,8.85
2023-01-19T18:05:53.610Z,3.53
2023-01-19T18:08:38.691Z,5.65
2023-01-19T18:11:22.100Z,6.20
2023-01-19T18:14:05.964Z,6.18
2023-01-19T18:16:48.851Z,6.07
2023-01-19T18:19:32.883Z,5.05
2023-01-19T18:22:15.612Z,4.40
2023-01-19T18:24:58.464Z,6.22
2023-01-19T18:27:41.140Z,4.43
2023-01-19T18:30:24.006Z,7.55
2023-01-19T18:33:06.844Z,4.97
2023-01-19T18:35:50.991Z,5.55
2023-01-19T18:38:33.778Z,4.10
2023-01-19T18:41:17.358Z,5.38
2023-01-19T18:44:00.386Z,4.15
2023-01-19T18:46:43.140Z,5.43
2023-01-19T18:49:25.849Z,6.00
2023-01-19T18:52:09.936Z,7.28
2023-01-19T18:54:52.652Z,4.97
2023-01-19T18:57:35.887Z,6.18
2023-01-19T19:00:19.052Z,3.08
2023-01-19T19:03:01.748Z,5.22
2023-01-19T19:05:44.499Z,3.80
2023-01-19T19:11:32.326Z,7.68
2023-01-19T19:28:54.066Z,5.80
2023-01-19T19:31:37.297Z,3.75
2023-01-19T19:34:20.058Z,5.63
2023-01-19T19:37:02.727Z,5.47
2023-01-19T19:39:45.470Z,2.70
2023-01-19T19:42:30.114Z,6.53
2023-01-19T19:45:14.945Z,5.93
2023-01-19T19:47:57.607Z,3.80
2023-01-19T19:50:40.317Z,4.00
2023-01-19T19:53:23.293Z,4.65
2023-01-19T19:56:06.385Z,5.60
2023-01-19T19:58:49.134Z,3.28
2023-01-19T20:01:34.087Z,5.80
2023-01-19T20:04:19.973Z,2.50
2023-01-19T20:07:02.654Z,5.68
2023-01-19T20:09:46.103Z,6.70
2023-01-19T20:12:52.536Z,5.93
2023-01-19T20:15:36.479Z,4.20
2023-01-19T20:18:20.610Z,4.78
2023-01-19T20:21:10.953Z,5.18
2023-01-19T20:23:54.221Z,3.67
2023-01-19T20:26:39.860Z,3.63
2023-01-19T20:29:22.750Z,3.88
2023-01-19T20:32:05.590Z,3.42
2023-01-19T20:34:49.659Z,3.33
2023-01-19T20:37:32.319Z,3.90
2023-01-19T20:40:15.636Z,5.47
2023-01-19T20:42:58.348Z,3.45
2023-01-19T20:45:41.108Z,4.80
2023-01-19T20:48:23.939Z,4.25
2023-01-19T20:51:09.542Z,3.72
2023-01-19T20:53:52.236Z,4.82
2023-01-19T20:56:34.906Z,4.30
2023-01-19T20:59:17.630Z,5.03
2023-01-19T21:02:00.421Z,5.97
2023-01-19T21:04:43.144Z,3.25
2023-01-19T21:07:27.215Z,3.97
2023-01-19T21:10:10.277Z,3.88
2023-01-19T21:12:52.938Z,4.75
2023-01-19T21:15:35.908Z,2.75
2023-01-19T21:18:18.593Z,3.42
2023-01-19T21:21:01.408Z,3.83
2023-01-19T21:23:46.790Z,4.13
2023-01-19T21:26:30.914Z,2.03
2023-01-19T21:29:14.149Z,5.15
2023-01-19T21:31:56.891Z,2.45
2023-01-19T21:34:39.561Z,1.10
2023-01-19T21:37:22.320Z,2.50
2023-01-19T21:40:07.284Z,2.83
2023-01-19T21:42:50.048Z,3.40
2023-01-19T21:45:32.804Z,4.10
2023-01-19T21:48:15.710Z,5.03
2023-01-19T21:50:58.397Z,4.78
2023-01-19T21:53:41.283Z,3.90
2023-01-19T21:56:25.457Z,4.88
2023-01-19T21:59:08.073Z,3.45
2023-01-19T22:01:50.812Z,5.00
2023-01-19T22:04:34.347Z,5.38
2023-01-19T22:07:17.043Z,1.98
2023-01-19T22:09:59.769Z,3.78
2023-01-19T22:12:43.802Z,4.13
2023-01-19T22:15:26.453Z,3.40
2023-01-19T22:18:09.108Z,5.60
2023-01-19T22:20:51.763Z,2.47
2023-01-19T22:23:34.433Z,2.33
2023-01-19T22:26:17.285Z,2.20
2023-01-19T22:29:02.080Z,3.80
2023-01-19T22:31:45.784Z,2.90
2023-01-19T22:34:28.505Z,3.47
2023-01-19T22:37:11.397Z,4.80
2023-01-19T22:39:54.162Z,2.88
2023-01-19T22:42:36.726Z,2.90
2023-01-19T22:45:21.785Z,4.47
2023-01-19T22:48:04.501Z,3.10
2023-01-19T22:50:47.084Z,3.40
2023-01-19T22:53:31.220Z,3.15
2023-01-19T22:56:14.850Z,4.95
2023-01-19T22:58:57.608Z,4.88
2023-01-19T23:01:42.869Z,3.85
2023-01-19T23:04:25.597Z,4.55
2023-01-19T23:07:09.287Z,3.55
2023-01-19T23:09:51.973Z,4.80
2023-01-19T23:12:34.584Z,3.45
2023-01-19T23:15:17.203Z,2.78
2023-01-19T23:18:01.165Z,6.93
2023-01-19T23:20:43.823Z,4.07
2023-01-19T23:23:26.432Z,4.05
2023-01-19T23:26:10.592Z,7.05
2023-01-19T23:28:54.687Z,5.75
2023-01-19T23:31:38.657Z,3.25
2023-01-19T23:34:22.706Z,4.45
2023-01-19T23:37:05.311Z,4.68
2023-01-19T23:39:47.884Z,4.03
2023-01-19T23:42:30.482Z,3.50
2023-01-19T23:45:13.435Z,3.65
2023-01-19T23:47:56.118Z,3.80
2023-01-19T23:50:41.693Z,7.18
2023-01-19T23:53:25.203Z,4.38
2023-01-19T23:56:11.863Z,5.38
2023-01-19T23:58:55.632Z,3.70
